sensor_id;sensor_type;location;lat;lon;timestamp;P1;durP1;ratioP1;P2;durP2;ratioP2
40150;SDS011;25866;52.420;10.640;2023-04-07T00:00:27;10.87;;;8.27;;
40150;SDS011;25866;52.420;10.640;2023-04-07T00:02:53;14.80;;;8.90;;
40150;SDS011;25866;52.420;10.640;2023-04-07T00:05:18;14.37;;;8.90;;
40150;SDS011;25866;52.420;10.640;2023-04-07T00:07:44;13.40;;;7.83;;
40150;SDS011;25866;52.420;10.640;2023-04-07T00:10:10;12.17;;;8.80;;
40150;SDS011;25866;52.420;10.640;2023-04-07T00:12:36;12.70;;;8.03;;
40150;SDS011;25866;52.420;10.640;2023-04-07T00:15:01;15.47;;;8.30;;
40150;SDS011;25866;52.420;10.640;2023-04-07T00:17:27;12.17;;;8.53;;
40150;SDS011;25866;52.420;10.640;2023-04-07T00:19:53;14.73;;;8.23;;
40150;SDS011;25866;52.420;10.640;2023-04-07T00:22:18;12.77;;;8.07;;
40150;SDS011;25866;52.420;10.640;2023-04-07T00:24:44;11.43;;;7.93;;
40150;SDS011;25866;52.420;10.640;2023-04-07T00:27:10;11.13;;;7.80;;
40150;SDS011;25866;52.420;10.640;2023-04-07T00:29:35;11.07;;;7.93;;
40150;SDS011;25866;52.420;10.640;2023-04-07T00:32:01;13.33;;;8.33;;
40150;SDS011;25866;52.420;10.640;2023-04-07T00:34:26;13.60;;;7.93;;
40150;SDS011;25866;52.420;10.640;2023-04-07T00:36:52;12.57;;;8.10;;
40150;SDS011;25866;52.420;10.640;2023-04-07T00:39:18;10.57;;;7.87;;
40150;SDS011;25866;52.420;10.640;2023-04-07T00:41:45;11.80;;;8.33;;
40150;SDS011;25866;52.420;10.640;2023-04-07T00:44:12;12.00;;;8.07;;
40150;SDS011;25866;52.420;10.640;2023-04-07T00:46:38;11.37;;;7.90;;
40150;SDS011;25866;52.420;10.640;2023-04-07T00:49:04;12.30;;;7.77;;
40150;SDS011;25866;52.420;10.640;2023-04-07T00:51:31;11.70;;;8.87;;
40150;SDS011;25866;52.420;10.640;2023-04-07T00:53:57;13.20;;;8.27;;
40150;SDS011;25866;52.420;10.640;2023-04-07T00:56:24;12.50;;;8.37;;
40150;SDS011;25866;52.420;10.640;2023-04-07T00:58:50;14.33;;;8.47;;
40150;SDS011;25866;52.420;10.640;2023-04-07T01:01:23;11.50;;;8.13;;
40150;SDS011;25866;52.420;10.640;2023-04-07T01:04:04;12.63;;;8.20;;
40150;SDS011;25866;52.420;10.640;2023-04-07T01:06:34;10.93;;;7.33;;
40150;SDS011;25866;52.420;10.640;2023-04-07T01:09:22;11.37;;;7.83;;
40150;SDS011;25866;52.420;10.640;2023-04-07T01:14:46;12.53;;;7.40;;
40150;SDS011;25866;52.420;10.640;2023-04-07T01:17:16;11.43;;;7.60;;
40150;SDS011;25866;52.420;10.640;2023-04-07T01:19:52;13.93;;;8.37;;
40150;SDS011;25866;52.420;10.640;2023-04-07T01:22:25;11.77;;;7.30;;
40150;SDS011;25866;52.420;10.640;2023-04-07T01:27:53;16.13;;;8.10;;
40150;SDS011;25866;52.420;10.640;2023-04-07T01:30:34;12.23;;;7.50;;
40150;SDS011;25866;52.420;10.640;2023-04-07T01:33:04;11.73;;;7.70;;
40150;SDS011;25866;52.420;10.640;2023-04-07T01:35:33;11.13;;;7.63;;
40150;SDS011;25866;52.420;10.640;2023-04-07T01:38:01;12.17;;;7.67;;
40150;SDS011;25866;52.420;10.640;2023-04-07T01:40:28;10.53;;;7.27;;
40150;SDS011;25866;52.420;10.640;2023-04-07T01:42:55;11.63;;;7.97;;
40150;SDS011;25866;52.420;10.640;2023-04-07T01:45:21;11.70;;;8.07;;
40150;SDS011;25866;52.420;10.640;2023-04-07T01:47:48;14.33;;;8.00;;
40150;SDS011;25866;52.420;10.640;2023-04-07T01:50:15;11.93;;;7.77;;
40150;SDS011;25866;52.420;10.640;2023-04-07T01:52:41;11.23;;;8.10;;
40150;SDS011;25866;52.420;10.640;2023-04-07T01:55:07;12.00;;;7.57;;
40150;SDS011;25866;52.420;10.640;2023-04-07T01:57:34;11.03;;;7.73;;
40150;SDS011;25866;52.420;10.640;2023-04-07T02:00:00;12.30;;;7.83;;
40150;SDS011;25866;52.420;10.640;2023-04-07T02:02:26;12.77;;;8.00;;
40150;SDS011;25866;52.420;10.640;2023-04-07T02:05:00;9.93;;;7.97;;
40150;SDS011;25866;52.420;10.640;2023-04-07T02:07:31;12.13;;;7.63;;
40150;SDS011;25866;52.420;10.640;2023-04-07T02:10:05;13.93;;;8.03;;
40150;SDS011;25866;52.420;10.640;2023-04-07T02:12:35;12.03;;;7.37;;
40150;SDS011;25866;52.420;10.640;2023-04-07T02:15:04;11.43;;;7.90;;
40150;SDS011;25866;52.420;10.640;2023-04-07T02:17:33;9.57;;;7.40;;
40150;SDS011;25866;52.420;10.640;2023-04-07T02:20:02;11.17;;;7.33;;
40150;SDS011;25866;52.420;10.640;2023-04-07T02:22:30;10.40;;;7.97;;
40150;SDS011;25866;52.420;10.640;2023-04-07T02:24:57;14.23;;;8.10;;
40150;SDS011;25866;52.420;10.640;2023-04-07T02:27:22;13.13;;;8.53;;
40150;SDS011;25866;52.420;10.640;2023-04-07T02:29:48;9.63;;;7.90;;
40150;SDS011;25866;52.420;10.640;2023-04-07T02:32:14;12.90;;;8.40;;
40150;SDS011;25866;52.420;10.640;2023-04-07T02:34:41;10.20;;;7.87;;
40150;SDS011;25866;52.420;10.640;2023-04-07T02:37:07;11.60;;;8.50;;
40150;SDS011;25866;52.420;10.640;2023-04-07T02:39:33;11.50;;;8.53;;
40150;SDS011;25866;52.420;10.640;2023-04-07T02:41:58;11.23;;;8.00;;
40150;SDS011;25866;52.420;10.640;2023-04-07T02:44:24;12.10;;;8.20;;
40150;SDS011;25866;52.420;10.640;2023-04-07T02:46:50;12.50;;;8.47;;
40150;SDS011;25866;52.420;10.640;2023-04-07T02:49:16;10.93;;;8.33;;
40150;SDS011;25866;52.420;10.640;2023-04-07T02:51:41;13.37;;;9.00;;
40150;SDS011;25866;52.420;10.640;2023-04-07T02:54:07;13.87;;;8.50;;
40150;SDS011;25866;52.420;10.640;2023-04-07T02:56:33;18.07;;;9.20;;
40150;SDS011;25866;52.420;10.640;2023-04-07T02:58:58;13.20;;;9.37;;
40150;SDS011;25866;52.420;10.640;2023-04-07T03:01:24;13.93;;;9.23;;
40150;SDS011;25866;52.420;10.640;2023-04-07T03:03:50;11.67;;;8.27;;
40150;SDS011;25866;52.420;10.640;2023-04-07T03:06:15;10.90;;;7.97;;
40150;SDS011;25866;52.420;10.640;2023-04-07T03:08:41;14.27;;;8.73;;
40150;SDS011;25866;52.420;10.640;2023-04-07T03:11:07;13.67;;;8.83;;
40150;SDS011;25866;52.420;10.640;2023-04-07T03:13:32;15.60;;;9.97;;
40150;SDS011;25866;52.420;10.640;2023-04-07T03:15:58;15.90;;;9.53;;
40150;SDS011;25866;52.420;10.640;2023-04-07T03:18:24;12.63;;;8.80;;
40150;SDS011;25866;52.420;10.640;2023-04-07T03:20:49;12.87;;;9.40;;
40150;SDS011;25866;52.420;10.640;2023-04-07T03:23:17;12.33;;;8.97;;
40150;SDS011;25866;52.420;10.640;2023-04-07T03:25:43;14.03;;;9.83;;
40150;SDS011;25866;52.420;10.640;2023-04-07T03:28:08;11.93;;;8.70;;
40150;SDS011;25866;52.420;10.640;2023-04-07T03:30:34;12.27;;;8.70;;
40150;SDS011;25866;52.420;10.640;2023-04-07T03:33:01;23.03;;;9.20;;
40150;SDS011;25866;52.420;10.640;2023-04-07T03:35:26;13.77;;;9.20;;
40150;SDS011;25866;52.420;10.640;2023-04-07T03:37:52;12.47;;;9.70;;
40150;SDS011;25866;52.420;10.640;2023-04-07T03:40:18;13.27;;;8.97;;
40150;SDS011;25866;52.420;10.640;2023-04-07T03:42:44;14.13;;;9.53;;
40150;SDS011;25866;52.420;10.640;2023-04-07T03:45:10;13.80;;;8.87;;
40150;SDS011;25866;52.420;10.640;2023-04-07T03:47:36;13.83;;;9.33;;
40150;SDS011;25866;52.420;10.640;2023-04-07T03:50:02;12.73;;;8.47;;
40150;SDS011;25866;52.420;10.640;2023-04-07T03:52:27;12.20;;;8.93;;
40150;SDS011;25866;52.420;10.640;2023-04-07T03:54:53;13.47;;;8.70;;
40150;SDS011;25866;52.420;10.640;2023-04-07T03:57:19;12.73;;;9.10;;
40150;SDS011;25866;52.420;10.640;2023-04-07T03:59:45;12.47;;;9.27;;
40150;SDS011;25866;52.420;10.640;2023-04-07T04:02:11;13.57;;;9.20;;
40150;SDS011;25866;52.420;10.640;2023-04-07T04:04:38;14.20;;;9.10;;
40150;SDS011;25866;52.420;10.640;2023-04-07T04:07:03;12.23;;;8.50;;
40150;SDS011;25866;52.420;10.640;2023-04-07T04:09:29;15.13;;;8.47;;
40150;SDS011;25866;52.420;10.640;2023-04-07T04:11:54;12.73;;;9.27;;
40150;SDS011;25866;52.420;10.640;2023-04-07T04:14:21;12.53;;;8.90;;
40150;SDS011;25866;52.420;10.640;2023-04-07T04:16:46;14.47;;;9.50;;
40150;SDS011;25866;52.420;10.640;2023-04-07T04:19:12;17.30;;;9.50;;
40150;SDS011;25866;52.420;10.640;2023-04-07T04:21:38;13.53;;;9.13;;
40150;SDS011;25866;52.420;10.640;2023-04-07T04:24:03;11.13;;;8.73;;
40150;SDS011;25866;52.420;10.640;2023-04-07T04:26:29;19.77;;;9.10;;
40150;SDS011;25866;52.420;10.640;2023-04-07T04:28:55;14.33;;;8.43;;
40150;SDS011;25866;52.420;10.640;2023-04-07T04:31:20;13.27;;;9.77;;
40150;SDS011;25866;52.420;10.640;2023-04-07T04:33:46;14.90;;;9.27;;
40150;SDS011;25866;52.420;10.640;2023-04-07T04:36:12;12.80;;;8.67;;
40150;SDS011;25866;52.420;10.640;2023-04-07T04:38:37;11.90;;;8.77;;
40150;SDS011;25866;52.420;10.640;2023-04-07T04:41:03;15.10;;;9.30;;
40150;SDS011;25866;52.420;10.640;2023-04-07T04:43:29;18.87;;;9.30;;
40150;SDS011;25866;52.420;10.640;2023-04-07T04:45:55;11.80;;;8.83;;
40150;SDS011;25866;52.420;10.640;2023-04-07T04:48:21;11.43;;;8.53;;
40150;SDS011;25866;52.420;10.640;2023-04-07T04:50:47;13.10;;;9.10;;
40150;SDS011;25866;52.420;10.640;2023-04-07T04:53:12;14.10;;;8.40;;
40150;SDS011;25866;52.420;10.640;2023-04-07T04:55:38;11.50;;;8.33;;
40150;SDS011;25866;52.420;10.640;2023-04-07T04:58:04;12.20;;;8.70;;
40150;SDS011;25866;52.420;10.640;2023-04-07T05:00:30;15.23;;;9.47;;
40150;SDS011;25866;52.420;10.640;2023-04-07T05:02:56;11.73;;;8.90;;
40150;SDS011;25866;52.420;10.640;2023-04-07T05:05:21;11.03;;;8.80;;
40150;SDS011;25866;52.420;10.640;2023-04-07T05:07:47;13.50;;;8.77;;
40150;SDS011;25866;52.420;10.640;2023-04-07T05:10:13;12.23;;;8.93;;
40150;SDS011;25866;52.420;10.640;2023-04-07T05:12:38;13.27;;;9.17;;
40150;SDS011;25866;52.420;10.640;2023-04-07T05:15:04;11.33;;;8.07;;
40150;SDS011;25866;52.420;10.640;2023-04-07T05:17:30;11.97;;;8.93;;
40150;SDS011;25866;52.420;10.640;2023-04-07T05:19:56;12.43;;;8.47;;
40150;SDS011;25866;52.420;10.640;2023-04-07T05:22:22;12.90;;;8.70;;
40150;SDS011;25866;52.420;10.640;2023-04-07T05:24:47;13.30;;;8.63;;
40150;SDS011;25866;52.420;10.640;2023-04-07T05:27:13;13.33;;;9.20;;
40150;SDS011;25866;52.420;10.640;2023-04-07T05:29:39;13.87;;;9.13;;
40150;SDS011;25866;52.420;10.640;2023-04-07T05:32:05;11.63;;;8.47;;
40150;SDS011;25866;52.420;10.640;2023-04-07T05:34:30;12.53;;;8.43;;
40150;SDS011;25866;52.420;10.640;2023-04-07T05:36:56;10.47;;;7.57;;
40150;SDS011;25866;52.420;10.640;2023-04-07T05:39:22;10.87;;;7.20;;
40150;SDS011;25866;52.420;10.640;2023-04-07T05:41:48;12.20;;;7.80;;
40150;SDS011;25866;52.420;10.640;2023-04-07T05:44:13;9.17;;;7.67;;
40150;SDS011;25866;52.420;10.640;2023-04-07T05:46:39;14.03;;;8.73;;
40150;SDS011;25866;52.420;10.640;2023-04-07T05:49:05;9.80;;;7.60;;
40150;SDS011;25866;52.420;10.640;2023-04-07T05:51:31;12.30;;;7.53;;
40150;SDS011;25866;52.420;10.640;2023-04-07T05:53:59;10.97;;;7.60;;
40150;SDS011;25866;52.420;10.640;2023-04-07T05:56:27;9.37;;;7.00;;
40150;SDS011;25866;52.420;10.640;2023-04-07T05:58:53;11.87;;;7.30;;
40150;SDS011;25866;52.420;10.640;2023-04-07T06:01:19;10.67;;;7.50;;
40150;SDS011;25866;52.420;10.640;2023-04-07T06:03:45;12.70;;;7.43;;
40150;SDS011;25866;52.420;10.640;2023-04-07T06:06:10;11.63;;;6.97;;
40150;SDS011;25866;52.420;10.640;2023-04-07T06:08:36;9.27;;;7.20;;
40150;SDS011;25866;52.420;10.640;2023-04-07T06:11:02;10.27;;;7.50;;
40150;SDS011;25866;52.420;10.640;2023-04-07T06:13:27;10.03;;;7.13;;
40150;SDS011;25866;52.420;10.640;2023-04-07T06:15:54;10.73;;;7.00;;
40150;SDS011;25866;52.420;10.640;2023-04-07T06:18:20;11.50;;;6.93;;
40150;SDS011;25866;52.420;10.640;2023-04-07T06:20:46;11.03;;;7.30;;
40150;SDS011;25866;52.420;10.640;2023-04-07T06:23:12;12.57;;;7.27;;
40150;SDS011;25866;52.420;10.640;2023-04-07T06:25:37;10.57;;;7.00;;
40150;SDS011;25866;52.420;10.640;2023-04-07T06:28:03;9.83;;;7.07;;
40150;SDS011;25866;52.420;10.640;2023-04-07T06:30:30;12.13;;;7.63;;
40150;SDS011;25866;52.420;10.640;2023-04-07T06:32:56;10.80;;;7.27;;
40150;SDS011;25866;52.420;10.640;2023-04-07T06:35:21;10.50;;;6.87;;
40150;SDS011;25866;52.420;10.640;2023-04-07T06:37:47;10.87;;;6.57;;
40150;SDS011;25866;52.420;10.640;2023-04-07T06:40:12;9.77;;;6.50;;
40150;SDS011;25866;52.420;10.640;2023-04-07T06:42:38;10.23;;;7.20;;
40150;SDS011;25866;52.420;10.640;2023-04-07T06:45:04;12.07;;;6.70;;
40150;SDS011;25866;52.420;10.640;2023-04-07T06:47:30;10.30;;;6.80;;
40150;SDS011;25866;52.420;10.640;2023-04-07T06:49:56;9.20;;;7.13;;
40150;SDS011;25866;52.420;10.640;2023-04-07T06:52:22;9.67;;;6.93;;
40150;SDS011;25866;52.420;10.640;2023-04-07T06:54:47;9.67;;;6.63;;
40150;SDS011;25866;52.420;10.640;2023-04-07T06:57:13;10.07;;;7.03;;
40150;SDS011;25866;52.420;10.640;2023-04-07T06:59:39;10.67;;;7.00;;
40150;SDS011;25866;52.420;10.640;2023-04-07T07:02:04;9.80;;;6.70;;
40150;SDS011;25866;52.420;10.640;2023-04-07T07:04:31;12.57;;;6.57;;
40150;SDS011;25866;52.420;10.640;2023-04-07T07:06:58;9.77;;;6.80;;
40150;SDS011;25866;52.420;10.640;2023-04-07T07:09:23;8.83;;;6.50;;
40150;SDS011;25866;52.420;10.640;2023-04-07T07:11:50;9.00;;;6.43;;
40150;SDS011;25866;52.420;10.640;2023-04-07T07:14:16;9.93;;;6.40;;
40150;SDS011;25866;52.420;10.640;2023-04-07T07:16:42;11.80;;;6.10;;
40150;SDS011;25866;52.420;10.640;2023-04-07T07:19:07;9.20;;;6.20;;
40150;SDS011;25866;52.420;10.640;2023-04-07T07:21:33;9.47;;;5.67;;
40150;SDS011;25866;52.420;10.640;2023-04-07T07:23:59;7.90;;;5.67;;
40150;SDS011;25866;52.420;10.640;2023-04-07T07:26:25;8.50;;;5.60;;
40150;SDS011;25866;52.420;10.640;2023-04-07T07:28:51;7.87;;;5.80;;
40150;SDS011;25866;52.420;10.640;2023-04-07T07:31:17;9.37;;;6.30;;
40150;SDS011;25866;52.420;10.640;2023-04-07T07:33:42;10.00;;;5.97;;
40150;SDS011;25866;52.420;10.640;2023-04-07T07:36:10;10.30;;;5.83;;
40150;SDS011;25866;52.420;10.640;2023-04-07T07:38:36;9.83;;;5.90;;
40150;SDS011;25866;52.420;10.640;2023-04-07T07:41:02;10.10;;;6.17;;
40150;SDS011;25866;52.420;10.640;2023-04-07T07:43:27;9.43;;;6.10;;
40150;SDS011;25866;52.420;10.640;2023-04-07T07:45:53;8.70;;;5.77;;
40150;SDS011;25866;52.420;10.640;2023-04-07T07:48:19;8.53;;;5.27;;
40150;SDS011;25866;52.420;10.640;2023-04-07T07:50:45;10.90;;;6.20;;
40150;SDS011;25866;52.420;10.640;2023-04-07T07:53:11;9.60;;;6.27;;
40150;SDS011;25866;52.420;10.640;2023-04-07T07:55:37;9.10;;;5.73;;
40150;SDS011;25866;52.420;10.640;2023-04-07T07:58:03;10.40;;;5.93;;
40150;SDS011;25866;52.420;10.640;2023-04-07T08:00:28;9.13;;;5.80;;
40150;SDS011;25866;52.420;10.640;2023-04-07T08:02:54;10.00;;;6.30;;
40150;SDS011;25866;52.420;10.640;2023-04-07T08:05:20;10.83;;;5.70;;
40150;SDS011;25866;52.420;10.640;2023-04-07T08:07:46;8.93;;;6.13;;
40150;SDS011;25866;52.420;10.640;2023-04-07T08:10:13;8.47;;;5.87;;
40150;SDS011;25866;52.420;10.640;2023-04-07T08:12:39;8.07;;;5.33;;
40150;SDS011;25866;52.420;10.640;2023-04-07T08:15:05;10.57;;;5.67;;
40150;SDS011;25866;52.420;10.640;2023-04-07T08:17:33;10.43;;;5.90;;
40150;SDS011;25866;52.420;10.640;2023-04-07T08:20:00;9.03;;;5.57;;
40150;SDS011;25866;52.420;10.640;2023-04-07T08:22:26;8.30;;;5.60;;
40150;SDS011;25866;52.420;10.640;2023-04-07T08:24:51;9.53;;;5.80;;
40150;SDS011;25866;52.420;10.640;2023-04-07T08:27:17;9.67;;;5.90;;
40150;SDS011;25866;52.420;10.640;2023-04-07T08:29:43;12.03;;;5.80;;
40150;SDS011;25866;52.420;10.640;2023-04-07T08:32:08;13.07;;;6.13;;
40150;SDS011;25866;52.420;10.640;2023-04-07T08:34:34;12.63;;;6.53;;
40150;SDS011;25866;52.420;10.640;2023-04-07T08:37:00;9.67;;;5.67;;
40150;SDS011;25866;52.420;10.640;2023-04-07T08:39:26;14.13;;;6.20;;
40150;SDS011;25866;52.420;10.640;2023-04-07T08:41:52;10.20;;;5.37;;
40150;SDS011;25866;52.420;10.640;2023-04-07T08:44:21;9.27;;;5.53;;
40150;SDS011;25866;52.420;10.640;2023-04-07T08:46:47;11.50;;;5.53;;
40150;SDS011;25866;52.420;10.640;2023-04-07T08:49:17;8.63;;;5.13;;
40150;SDS011;25866;52.420;10.640;2023-04-07T08:51:45;8.87;;;5.33;;
40150;SDS011;25866;52.420;10.640;2023-04-07T08:54:13;7.55;;;5.15;;
40150;SDS011;25866;52.420;10.640;2023-04-07T08:56:40;9.00;;;5.40;;
40150;SDS011;25866;52.420;10.640;2023-04-07T08:59:08;8.50;;;5.13;;
40150;SDS011;25866;52.420;10.640;2023-04-07T09:01:37;10.50;;;5.20;;
40150;SDS011;25866;52.420;10.640;2023-04-07T09:04:04;8.50;;;5.57;;
40150;SDS011;25866;52.420;10.640;2023-04-07T09:06:31;13.23;;;5.30;;
40150;SDS011;25866;52.420;10.640;2023-04-07T09:08:58;10.45;;;5.18;;
40150;SDS011;25866;52.420;10.640;2023-04-07T09:11:25;11.70;;;6.20;;
40150;SDS011;25866;52.420;10.640;2023-04-07T09:13:51;9.52;;;5.68;;
40150;SDS011;25866;52.420;10.640;2023-04-07T09:16:18;9.93;;;5.77;;
40150;SDS011;25866;52.420;10.640;2023-04-07T09:18:44;9.27;;;5.23;;
40150;SDS011;25866;52.420;10.640;2023-04-07T09:21:10;11.45;;;5.88;;
40150;SDS011;25866;52.420;10.640;2023-04-07T09:23:37;7.40;;;4.80;;
40150;SDS011;25866;52.420;10.640;2023-04-07T09:29:00;7.20;;;4.80;;
40150;SDS011;25866;52.420;10.640;2023-04-07T09:31:44;8.63;;;5.40;;
40150;SDS011;25866;52.420;10.640;2023-04-07T09:36:50;8.23;;;4.80;;
40150;SDS011;25866;52.420;10.640;2023-04-07T09:39:16;9.30;;;5.32;;
40150;SDS011;25866;52.420;10.640;2023-04-07T09:41:42;8.05;;;5.00;;
40150;SDS011;25866;52.420;10.640;2023-04-07T09:44:07;10.65;;;5.20;;
40150;SDS011;25866;52.420;10.640;2023-04-07T09:46:35;7.78;;;5.00;;
40150;SDS011;25866;52.420;10.640;2023-04-07T09:49:13;8.43;;;4.80;;
40150;SDS011;25866;52.420;10.640;2023-04-07T09:51:42;8.18;;;4.95;;
40150;SDS011;25866;52.420;10.640;2023-04-07T09:57:03;6.93;;;4.20;;
40150;SDS011;25866;52.420;10.640;2023-04-07T09:59:31;6.63;;;4.47;;
40150;SDS011;25866;52.420;10.640;2023-04-07T10:01:58;9.65;;;4.88;;
40150;SDS011;25866;52.420;10.640;2023-04-07T10:04:24;5.88;;;4.35;;
40150;SDS011;25866;52.420;10.640;2023-04-07T10:06:55;6.80;;;4.20;;
40150;SDS011;25866;52.420;10.640;2023-04-07T10:09:21;8.00;;;4.18;;
40150;SDS011;25866;52.420;10.640;2023-04-07T10:11:49;6.60;;;3.95;;
40150;SDS011;25866;52.420;10.640;2023-04-07T10:14:16;6.05;;;3.80;;
40150;SDS011;25866;52.420;10.640;2023-04-07T10:16:45;7.45;;;4.57;;
40150;SDS011;25866;52.420;10.640;2023-04-07T10:19:15;6.10;;;3.90;;
40150;SDS011;25866;52.420;10.640;2023-04-07T10:21:43;6.32;;;4.05;;
40150;SDS011;25866;52.420;10.640;2023-04-07T10:27:00;5.80;;;3.80;;
40150;SDS011;25866;52.420;10.640;2023-04-07T10:29:30;6.57;;;4.18;;
40150;SDS011;25866;52.420;10.640;2023-04-07T10:32:01;5.85;;;3.90;;
40150;SDS011;25866;52.420;10.640;2023-04-07T10:37:15;5.97;;;3.60;;
40150;SDS011;25866;52.420;10.640;2023-04-07T10:39:45;6.82;;;3.75;;
40150;SDS011;25866;52.420;10.640;2023-04-07T10:45:01;7.10;;;3.88;;
40150;SDS011;25866;52.420;10.640;2023-04-07T10:47:28;8.02;;;4.20;;
40150;SDS011;25866;52.420;10.640;2023-04-07T10:52:48;4.82;;;3.63;;
40150;SDS011;25866;52.420;10.640;2023-04-07T10:55:41;6.65;;;4.05;;
40150;SDS011;25866;52.420;10.640;2023-04-07T10:58:20;5.82;;;3.70;;
40150;SDS011;25866;52.420;10.640;2023-04-07T11:03:31;6.43;;;3.70;;
40150;SDS011;25866;52.420;10.640;2023-04-07T11:06:05;5.45;;;3.40;;
40150;SDS011;25866;52.420;10.640;2023-04-07T11:10:58;5.32;;;3.22;;
40150;SDS011;25866;52.420;10.640;2023-04-07T11:13:25;5.25;;;3.05;;
40150;SDS011;25866;52.420;10.640;2023-04-07T11:15:51;5.75;;;3.20;;
40150;SDS011;25866;52.420;10.640;2023-04-07T11:18:18;5.43;;;3.72;;
40150;SDS011;25866;52.420;10.640;2023-04-07T11:23:22;5.43;;;3.67;;
40150;SDS011;25866;52.420;10.640;2023-04-07T11:25:50;5.35;;;3.22;;
40150;SDS011;25866;52.420;10.640;2023-04-07T11:28:17;7.47;;;3.30;;
40150;SDS011;25866;52.420;10.640;2023-04-07T11:30:44;6.97;;;4.00;;
40150;SDS011;25866;52.420;10.640;2023-04-07T11:33:18;7.20;;;4.32;;
40150;SDS011;25866;52.420;10.640;2023-04-07T11:35:52;6.20;;;3.53;;
40150;SDS011;25866;52.420;10.640;2023-04-07T11:38:19;5.35;;;3.70;;
40150;SDS011;25866;52.420;10.640;2023-04-07T11:40:46;6.07;;;3.72;;
40150;SDS011;25866;52.420;10.640;2023-04-07T11:45:45;5.38;;;3.78;;
40150;SDS011;25866;52.420;10.640;2023-04-07T11:48:28;6.65;;;3.60;;
40150;SDS011;25866;52.420;10.640;2023-04-07T11:50:55;7.10;;;3.53;;
40150;SDS011;25866;52.420;10.640;2023-04-07T11:53:27;7.40;;;3.90;;
40150;SDS011;25866;52.420;10.640;2023-04-07T11:56:01;5.63;;;3.85;;
40150;SDS011;25866;52.420;10.640;2023-04-07T11:58:36;5.47;;;3.55;;
40150;SDS011;25866;52.420;10.640;2023-04-07T12:01:03;6.75;;;3.45;;
40150;SDS011;25866;52.420;10.640;2023-04-07T12:03:34;6.68;;;3.90;;
40150;SDS011;25866;52.420;10.640;2023-04-07T12:06:01;6.60;;;4.00;;
40150;SDS011;25866;52.420;10.640;2023-04-07T12:08:37;6.57;;;4.35;;
40150;SDS011;25866;52.420;10.640;2023-04-07T12:11:04;7.25;;;4.30;;
40150;SDS011;25866;52.420;10.640;2023-04-07T12:13:30;5.32;;;4.20;;
40150;SDS011;25866;52.420;10.640;2023-04-07T12:15:59;5.60;;;3.67;;
40150;SDS011;25866;52.420;10.640;2023-04-07T12:18:25;4.65;;;3.42;;
40150;SDS011;25866;52.420;10.640;2023-04-07T12:20:52;6.78;;;3.53;;
40150;SDS011;25866;52.420;10.640;2023-04-07T12:23:18;6.90;;;3.90;;
40150;SDS011;25866;52.420;10.640;2023-04-07T12:25:43;6.43;;;3.95;;
40150;SDS011;25866;52.420;10.640;2023-04-07T12:28:09;6.60;;;3.55;;
40150;SDS011;25866;52.420;10.640;2023-04-07T12:30:35;6.13;;;3.80;;
40150;SDS011;25866;52.420;10.640;2023-04-07T12:33:01;8.25;;;3.55;;
40150;SDS011;25866;52.420;10.640;2023-04-07T12:35:28;6.28;;;3.70;;
40150;SDS011;25866;52.420;10.640;2023-04-07T12:37:54;6.07;;;4.10;;
40150;SDS011;25866;52.420;10.640;2023-04-07T12:40:21;6.82;;;3.70;;
40150;SDS011;25866;52.420;10.640;2023-04-07T12:42:47;6.57;;;3.70;;
40150;SDS011;25866;52.420;10.640;2023-04-07T12:45:12;5.72;;;3.35;;
40150;SDS011;25866;52.420;10.640;2023-04-07T12:47:38;6.65;;;4.13;;
40150;SDS011;25866;52.420;10.640;2023-04-07T12:50:04;5.60;;;3.35;;
40150;SDS011;25866;52.420;10.640;2023-04-07T12:52:30;5.60;;;3.50;;
40150;SDS011;25866;52.420;10.640;2023-04-07T12:54:56;8.60;;;3.50;;
40150;SDS011;25866;52.420;10.640;2023-04-07T12:57:22;4.35;;;3.05;;
40150;SDS011;25866;52.420;10.640;2023-04-07T12:59:48;6.70;;;3.67;;
40150;SDS011;25866;52.420;10.640;2023-04-07T13:02:14;5.20;;;3.65;;
40150;SDS011;25866;52.420;10.640;2023-04-07T13:04:42;5.65;;;3.25;;
40150;SDS011;25866;52.420;10.640;2023-04-07T13:07:11;4.45;;;3.03;;
40150;SDS011;25866;52.420;10.640;2023-04-07T13:09:39;7.95;;;3.30;;
40150;SDS011;25866;52.420;10.640;2023-04-07T13:12:09;5.65;;;3.38;;
40150;SDS011;25866;52.420;10.640;2023-04-07T13:14:39;5.70;;;3.30;;
40150;SDS011;25866;52.420;10.640;2023-04-07T13:17:06;4.28;;;3.05;;
40150;SDS011;25866;52.420;10.640;2023-04-07T13:19:32;4.43;;;3.25;;
40150;SDS011;25866;52.420;10.640;2023-04-07T13:21:58;4.20;;;2.88;;
40150;SDS011;25866;52.420;10.640;2023-04-07T13:24:24;5.53;;;3.22;;
40150;SDS011;25866;52.420;10.640;2023-04-07T13:26:51;5.38;;;2.90;;
40150;SDS011;25866;52.420;10.640;2023-04-07T13:29:17;7.25;;;3.40;;
40150;SDS011;25866;52.420;10.640;2023-04-07T13:31:44;4.75;;;3.20;;
40150;SDS011;25866;52.420;10.640;2023-04-07T13:34:10;7.07;;;3.70;;
40150;SDS011;25866;52.420;10.640;2023-04-07T13:36:36;5.95;;;3.80;;
40150;SDS011;25866;52.420;10.640;2023-04-07T13:39:02;7.65;;;3.78;;
40150;SDS011;25866;52.420;10.640;2023-04-07T13:41:27;5.80;;;4.00;;
40150;SDS011;25866;52.420;10.640;2023-04-07T13:43:53;4.50;;;3.17;;
40150;SDS011;25866;52.420;10.640;2023-04-07T13:46:19;8.40;;;4.25;;
40150;SDS011;25866;52.420;10.640;2023-04-07T13:48:45;6.05;;;3.75;;
40150;SDS011;25866;52.420;10.640;2023-04-07T13:51:11;4.97;;;3.50;;
40150;SDS011;25866;52.420;10.640;2023-04-07T13:53:36;6.13;;;3.60;;
40150;SDS011;25866;52.420;10.640;2023-04-07T13:56:02;4.30;;;3.15;;
40150;SDS011;25866;52.420;10.640;2023-04-07T13:58:30;6.05;;;3.53;;
40150;SDS011;25866;52.420;10.640;2023-04-07T14:00:55;6.32;;;3.40;;
40150;SDS011;25866;52.420;10.640;2023-04-07T14:03:21;5.45;;;3.88;;
40150;SDS011;25866;52.420;10.640;2023-04-07T14:05:47;7.65;;;3.80;;
40150;SDS011;25866;52.420;10.640;2023-04-07T14:08:13;7.60;;;3.92;;
40150;SDS011;25866;52.420;10.640;2023-04-07T14:10:39;5.88;;;3.72;;
40150;SDS011;25866;52.420;10.640;2023-04-07T14:13:04;5.65;;;3.85;;
40150;SDS011;25866;52.420;10.640;2023-04-07T14:15:31;6.88;;;3.40;;
40150;SDS011;25866;52.420;10.640;2023-04-07T14:17:58;6.25;;;3.53;;
40150;SDS011;25866;52.420;10.640;2023-04-07T14:20:25;6.00;;;3.72;;
40150;SDS011;25866;52.420;10.640;2023-04-07T14:22:50;6.05;;;3.63;;
40150;SDS011;25866;52.420;10.640;2023-04-07T14:25:16;6.82;;;3.60;;
40150;SDS011;25866;52.420;10.640;2023-04-07T14:27:42;4.55;;;3.42;;
40150;SDS011;25866;52.420;10.640;2023-04-07T14:30:08;6.38;;;3.65;;
40150;SDS011;25866;52.420;10.640;2023-04-07T14:32:34;5.95;;;3.88;;
40150;SDS011;25866;52.420;10.640;2023-04-07T14:35:00;6.60;;;3.85;;
40150;SDS011;25866;52.420;10.640;2023-04-07T14:37:26;4.68;;;3.08;;
40150;SDS011;25866;52.420;10.640;2023-04-07T14:39:53;6.65;;;3.60;;
40150;SDS011;25866;52.420;10.640;2023-04-07T14:42:21;5.43;;;3.20;;
40150;SDS011;25866;52.420;10.640;2023-04-07T14:44:48;4.60;;;3.47;;
40150;SDS011;25866;52.420;10.640;2023-04-07T14:47:14;5.80;;;3.38;;
40150;SDS011;25866;52.420;10.640;2023-04-07T14:49:39;4.65;;;3.42;;
40150;SDS011;25866;52.420;10.640;2023-04-07T14:52:05;5.78;;;3.60;;
40150;SDS011;25866;52.420;10.640;2023-04-07T14:54:31;4.57;;;3.13;;
40150;SDS011;25866;52.420;10.640;2023-04-07T14:56:57;5.38;;;3.08;;
40150;SDS011;25866;52.420;10.640;2023-04-07T14:59:22;7.95;;;3.53;;
40150;SDS011;25866;52.420;10.640;2023-04-07T15:01:48;4.55;;;3.10;;